Time;durP1;ratioP1;P1;durP2;ratioP2;P2;SDS_P1;SDS_P2;PMS_P1;PMS_P2;Temp;Humidity;BMP_temperature;BMP_pressure;BME280_temperature;BME280_humidity;BME280_pressure;Samples;Min_cycle;Max_cycle;Signal;HPM_P1;HPM_P2
2022/01/30 00:00:17;;;;;;;27.25;7.28;;;;;;;4.92;82.83;98545.69;4907151;29;20340;-82
2022/01/30 00:02:42;;;;;;;32.90;7.63;;;;;;;4.78;83.60;98514.88;4908336;29;20056;-80
2022/01/30 00:05:08;;;;;;;33.22;9.25;;;;;;;4.99;83.26;98548.31;4890509;29;20024;-82
2022/01/30 00:07:33;;;;;;;24.10;5.03;;;;;;;4.87;83.08;98503.72;4891240;29;20028;-82
2022/01/30 00:09:59;;;;;;;37.28;8.60;;;;;;;5.06;83.03;98509.88;4891755;29;20036;-83
2022/01/30 00:12:42;;;;;;;32.35;8.57;;;;;;;4.95;82.15;98478.63;4890293;29;20040;-83
2022/01/30 00:15:08;;;;;;;29.20;7.13;;;;;;;5.03;80.56;98490.84;4908029;29;20104;-83
2022/01/30 00:17:40;;;;;;;33.55;7.55;;;;;;;5.13;78.19;98500.00;4890356;29;20451;-82
2022/01/30 00:20:11;;;;;;;27.55;6.50;;;;;;;5.15;76.96;98561.88;4904809;29;20055;-82
2022/01/30 00:22:59;;;;;;;29.02;6.40;;;;;;;5.04;77.83;98537.81;4921847;29;20032;-80
2022/01/30 00:25:34;;;;;;;37.25;7.13;;;;;;;5.28;78.42;98614.28;4889619;29;20510;-82
2022/01/30 00:28:06;;;;;;;29.50;8.55;;;;;;;5.25;78.10;98606.72;4921838;29;20063;-83
2022/01/30 00:30:34;;;;;;;27.98;6.55;;;;;;;5.32;78.41;98575.47;4907668;29;20073;-82
2022/01/30 00:33:01;;;;;;;25.65;5.82;;;;;;;5.19;77.62;98602.25;4907143;29;20420;-82
2022/01/30 00:35:27;;;;;;;32.30;8.60;;;;;;;5.31;77.90;98607.72;4906994;29;20033;-82
2022/01/30 00:37:53;;;;;;;35.35;7.55;;;;;;;5.33;78.34;98608.28;4890555;29;20036;-83
2022/01/30 00:40:19;;;;;;;28.23;5.95;;;;;;;5.31;80.45;98616.53;4907056;29;20033;-83
2022/01/30 00:42:44;;;;;;;30.98;8.43;;;;;;;5.28;78.78;98549.47;4874059;29;20029;-82
2022/01/30 00:45:10;;;;;;;30.30;6.72;;;;;;;5.33;79.75;98600.28;4906864;29;20079;-81
2022/01/30 00:47:35;;;;;;;31.95;6.93;;;;;;;5.31;78.92;98626.38;4890185;29;20065;-82
2022/01/30 00:50:01;;;;;;;37.25;8.73;;;;;;;5.36;81.40;98613.19;4906478;29;20350;-83
2022/01/30 00:52:26;;;;;;;23.27;5.78;;;;;;;5.24;80.46;98622.94;4906190;29;20043;-82
2022/01/30 00:54:51;;;;;;;36.83;7.22;;;;;;;5.19;80.19;98611.06;4891831;29;20036;-82
2022/01/30 00:57:17;;;;;;;28.48;5.75;;;;;;;5.24;81.05;98625.63;4863236;29;20032;-82
2022/01/30 00:59:42;;;;;;;30.77;7.45;;;;;;;5.13;80.75;98598.63;4911097;29;20032;-82
2022/01/30 01:02:08;;;;;;;30.95;6.40;;;;;;;5.34;80.19;98668.59;4878435;29;20032;-81
2022/01/30 01:04:33;;;;;;;27.48;6.72;;;;;;;5.31;81.01;98680.53;4911220;29;20032;-83
2022/01/30 01:06:58;;;;;;;28.83;6.57;;;;;;;5.23;80.65;98706.63;4893640;29;20032;-82
2022/01/30 01:09:31;;;;;;;34.50;9.52;;;;;;;5.21;82.24;98698.03;4893874;29;20044;-82
2022/01/30 01:25:38;;;;;;;35.38;8.38;;;;;;;5.07;86.26;98681.31;4904321;29;20090;-82
2022/01/30 01:28:03;;;;;;;35.45;8.95;;;;;;;4.99;87.11;98694.91;4908110;29;20047;-81
2022/01/30 01:30:29;;;;;;;36.67;7.80;;;;;;;5.22;87.13;98737.00;4874966;29;20748;-82
2022/01/30 01:32:54;;;;;;;34.33;6.20;;;;;;;5.22;87.74;98743.13;4906388;29;20044;-82
2022/01/30 01:35:20;;;;;;;18.60;4.65;;;;;;;5.06;87.74;98717.78;4892349;29;20040;-83
2022/01/30 01:37:52;;;;;;;37.17;7.72;;;;;;;4.98;87.01;98718.06;4877858;29;20028;-82
2022/01/30 01:40:17;;;;;;;35.00;7.20;;;;;;;5.14;86.18;98714.91;4878311;29;20047;-81
2022/01/30 01:42:44;;;;;;;27.15;6.97;;;;;;;5.17;86.06;98734.97;4892387;29;20427;-81
2022/01/30 01:45:09;;;;;;;24.55;5.53;;;;;;;5.23;85.88;98719.94;4877552;29;20028;-82
2022/01/30 01:47:35;;;;;;;39.20;9.25;;;;;;;5.38;85.43;98785.28;4876802;29;20063;-82
2022/01/30 01:50:01;;;;;;;35.78;8.88;;;;;;;5.36;85.27;98750.03;4873283;29;20061;-82
2022/01/30 01:52:26;;;;;;;37.22;8.27;;;;;;;5.48;85.90;98795.50;4874628;29;20043;-82
2022/01/30 01:54:55;;;;;;;26.60;6.07;;;;;;;5.49;85.15;98823.78;4887755;29;20066;-82
2022/01/30 01:57:23;;;;;;;20.23;6.57;;;;;;;5.41;84.57;98773.38;4889780;29;20036;-81
2022/01/30 01:59:48;;;;;;;30.38;7.20;;;;;;;5.52;83.29;98759.34;4874241;29;20367;-81
2022/01/30 02:02:15;;;;;;;31.77;7.80;;;;;;;5.56;83.36;98749.91;4889783;29;20037;-80
2022/01/30 02:04:42;;;;;;;31.63;8.13;;;;;;;5.45;83.46;98766.56;4874998;29;20029;-82
2022/01/30 02:09:51;;;;;;;38.03;9.02;;;;;;;5.55;83.44;98769.56;4877029;29;20565;-83
2022/01/30 02:12:24;;;;;;;32.22;7.40;;;;;;;5.68;82.40;98821.22;4887933;29;20029;-83
2022/01/30 02:28:00;;;;;;;24.17;5.68;;;;;;;5.84;81.66;98794.00;4889989;29;20101;-81
2022/01/30 02:30:32;;;;;;;27.75;7.30;;;;;;;5.89;81.91;98856.38;4886824;29;20036;-81
2022/01/30 02:32:58;;;;;;;29.55;7.75;;;;;;;5.80;82.67;98832.84;4871939;29;20029;-81
2022/01/30 02:35:23;;;;;;;32.38;8.00;;;;;;;5.85;82.75;98844.47;4881886;29;20042;-80
2022/01/30 02:37:52;;;;;;;24.88;6.78;;;;;;;5.96;82.37;98895.56;4886093;29;20044;-81
2022/01/30 02:40:17;;;;;;;31.67;8.43;;;;;;;5.87;81.27;98878.97;4871109;29;20065;-81
2022/01/30 02:42:48;;;;;;;28.33;7.15;;;;;;;6.18;78.11;98896.03;4851915;29;20033;-82
2022/01/30 02:45:15;;;;;;;30.65;8.07;;;;;;;6.20;78.09;98912.66;4869353;29;20145;-80
2022/01/30 02:47:54;;;;;;;23.08;6.45;;;;;;;6.11;75.99;98896.09;4885439;29;20430;-81
2022/01/30 02:50:32;;;;;;;29.08;6.97;;;;;;;6.30;76.30;98921.81;4885210;29;20193;-82
2022/01/30 02:52:58;;;;;;;21.27;4.47;;;;;;;6.42;75.83;98937.13;4871890;29;20032;-82
2022/01/30 02:55:24;;;;;;;12.82;4.03;;;;;;;6.42;75.66;98956.66;4885235;29;20103;-83
2022/01/30 02:57:50;;;;;;;19.40;4.90;;;;;;;6.19;75.23;98930.56;4874960;29;20084;-81
2022/01/30 03:00:16;;;;;;;27.50;6.50;;;;;;;6.27;76.49;98932.94;4851580;29;20089;-81
2022/01/30 03:02:42;;;;;;;20.23;5.72;;;;;;;6.28;72.85;98907.84;4873667;29;20048;-82
2022/01/30 03:05:08;;;;;;;20.95;4.70;;;;;;;6.40;74.38;98993.47;4884635;29;20021;-80
2022/01/30 03:07:33;;;;;;;17.52;4.03;;;;;;;6.23;72.75;98969.13;4883148;29;20044;-82
2022/01/30 03:09:58;;;;;;;21.52;3.65;;;;;;;6.48;72.65;99009.22;4869799;29;20059;-80
2022/01/30 03:12:24;;;;;;;21.90;3.30;;;;;;;6.45;72.79;98993.63;4884373;29;20074;-81
2022/01/30 03:14:49;;;;;;;8.23;1.88;;;;;;;6.53;68.80;98992.56;4885043;29;20056;-82
2022/01/30 03:17:15;;;;;;;16.67;4.05;;;;;;;6.52;69.60;98964.19;4883443;29;20029;-81
2022/01/30 03:19:41;;;;;;;13.73;3.65;;;;;;;6.58;68.54;99019.44;4884365;29;20371;-82
2022/01/30 03:22:07;;;;;;;15.02;2.83;;;;;;;6.51;70.78;99034.69;4884269;29;20393;-81
2022/01/30 03:24:36;;;;;;;16.65;3.00;;;;;;;6.41;71.78;98987.09;4869953;29;20029;-80
2022/01/30 03:27:07;;;;;;;8.50;2.20;;;;;;;6.47;71.05;99038.84;4888088;29;20037;-81
2022/01/30 03:29:34;;;;;;;14.52;2.85;;;;;;;6.59;71.50;99032.59;4884900;29;20028;-81
2022/01/30 03:31:59;;;;;;;7.35;2.20;;;;;;;6.30;71.46;99011.81;4868579;29;20048;-81
2022/01/30 03:34:25;;;;;;;12.25;2.55;;;;;;;6.49;72.35;99088.38;4866483;29;20029;-81
2022/01/30 03:36:51;;;;;;;9.52;1.95;;;;;;;6.57;71.15;99114.81;4882529;29;20025;-81
2022/01/30 03:39:16;;;;;;;9.70;2.45;;;;;;;6.56;71.64;99104.38;4882566;29;20478;-80
2022/01/30 03:41:42;;;;;;;11.25;2.75;;;;;;;6.30;72.07;99076.75;4885193;29;20168;-81
2022/01/30 03:44:07;;;;;;;9.73;1.92;;;;;;;6.61;71.17;99115.22;4864265;29;20033;-81
2022/01/30 03:46:33;;;;;;;11.60;2.40;;;;;;;6.41;68.20;99095.81;4869407;29;20070;-82
2022/01/30 03:48:58;;;;;;;10.13;1.65;;;;;;;6.67;67.50;99142.94;4869162;29;20033;-82
2022/01/30 03:51:24;;;;;;;10.75;2.25;;;;;;;6.13;68.39;99048.09;4804497;29;1395327;-82
2022/01/30 03:53:49;;;;;;;13.07;2.55;;;;;;;6.70;69.03;99145.19;4868353;29;20426;-83
2022/01/30 03:56:15;;;;;;;7.88;1.45;;;;;;;6.59;66.22;99168.06;4888957;29;20068;-82
2022/01/30 03:58:40;;;;;;;5.47;1.20;;;;;;;6.74;64.88;99206.00;4867823;29;20045;-82
2022/01/30 04:01:05;;;;;;;8.32;1.30;;;;;;;6.72;63.73;99164.47;4868470;29;20097;-81
2022/01/30 04:03:31;;;;;;;10.70;1.40;;;;;;;6.76;63.05;99206.63;4882992;29;20028;-82
2022/01/30 04:05:56;;;;;;;5.43;1.15;;;;;;;6.78;61.50;99188.50;4880546;29;20033;-82
2022/01/30 04:08:22;;;;;;;6.30;1.17;;;;;;;6.73;63.10;99198.22;4885647;29;20029;-80
2022/01/30 04:10:48;;;;;;;5.82;1.25;;;;;;;6.42;65.16;99221.16;4885421;29;20041;-83
2022/01/30 04:13:13;;;;;;;6.07;1.10;;;;;;;6.69;66.18;99261.97;4887090;29;20479;-82
2022/01/30 04:15:39;;;;;;;8.15;1.73;;;;;;;6.76;67.11;99254.75;4886169;29;20127;-81
2022/01/30 04:18:05;;;;;;;6.68;1.75;;;;;;;6.51;68.08;99267.16;4869217;29;20033;-82
2022/01/30 04:20:31;;;;;;;10.18;1.80;;;;;;;6.61;70.13;99307.63;4885231;29;20055;-81
2022/01/30 04:22:57;;;;;;;5.85;1.58;;;;;;;6.63;70.92;99288.72;4885638;29;20040;-81
2022/01/30 04:25:23;;;;;;;12.88;3.08;;;;;;;6.56;72.19;99262.84;4866665;29;20025;-82
2022/01/30 04:27:49;;;;;;;17.15;3.00;;;;;;;6.73;71.22;99310.50;4869388;29;20033;-82
2022/01/30 04:30:16;;;;;;;10.13;1.98;;;;;;;6.76;69.76;99302.06;4884772;29;20148;-81
2022/01/30 04:32:43;;;;;;;13.30;2.83;;;;;;;6.66;70.97;99331.06;4886835;29;20037;-81
2022/01/30 04:35:14;;;;;;;8.23;1.80;;;;;;;6.64;71.36;99319.75;4868803;29;20044;-81
2022/01/30 04:56:57;;;;;;;12.45;2.60;;;;;;;6.79;71.72;99420.09;4891909;29;20056;-83
2022/01/30 05:09:41;;;;;;;13.85;2.63;;;;;;;6.65;73.57;99426.44;4892543;29;20112;-80
2022/01/30 05:12:08;;;;;;;21.25;3.83;;;;;;;6.49;74.10;99425.06;4877234;29;20033;-82
2022/01/30 05:14:35;;;;;;;15.70;2.88;;;;;;;6.58;74.03;99473.75;4880192;29;20216;-84
2022/01/30 05:17:04;;;;;;;11.38;2.70;;;;;;;6.56;74.16;99491.88;4875229;29;20093;-81
2022/01/30 05:19:30;;;;;;;14.88;3.00;;;;;;;6.64;73.71;99498.84;4874457;29;20033;-84
2022/01/30 05:21:55;;;;;;;13.30;3.33;;;;;;;6.58;73.57;99479.91;4866138;29;20029;-84
2022/01/30 05:24:22;;;;;;;12.60;2.80;;;;;;;6.51;73.70;99467.59;4876160;29;20036;-82
2022/01/30 05:26:47;;;;;;;13.43;3.33;;;;;;;6.62;73.33;99515.06;4876541;29;20109;-82
2022/01/30 05:29:15;;;;;;;14.75;2.70;;;;;;;6.62;73.42;99514.25;4877755;29;20448;-83
2022/01/30 05:31:41;;;;;;;9.65;2.08;;;;;;;6.52;71.51;99475.41;4892009;29;20479;-85
2022/01/30 05:34:07;;;;;;;15.80;2.97;;;;;;;6.53;71.65;99524.34;4891384;29;20061;-82
2022/01/30 05:36:34;;;;;;;10.98;2.13;;;;;;;6.45;70.84;99503.13;4889884;29;20363;-83
2022/01/30 05:39:00;;;;;;;14.48;2.97;;;;;;;6.62;71.80;99544.47;4876117;29;20105;-82
2022/01/30 05:41:27;;;;;;;14.07;3.25;;;;;;;6.61;72.08;99542.00;4887494;29;20124;-82
2022/01/30 05:43:57;;;;;;;17.25;4.60;;;;;;;6.57;72.72;99557.63;4884932;29;20021;-83
2022/01/30 05:46:37;;;;;;;14.90;3.70;;;;;;;6.57;72.64;99585.19;4877736;29;20029;-83
2022/01/30 05:49:03;;;;;;;14.57;3.83;;;;;;;6.50;73.95;99562.16;4879412;29;20033;-82
2022/01/30 05:51:29;;;;;;;15.85;3.33;;;;;;;6.53;72.88;99599.16;4894979;29;20112;-84
2022/01/30 05:53:54;;;;;;;13.25;3.67;;;;;;;6.54;72.10;99606.16;4896360;29;20052;-83
2022/01/30 05:56:20;;;;;;;14.77;3.65;;;;;;;6.52;72.10;99608.19;4897996;29;20057;-84
2022/01/30 05:58:45;;;;;;;16.25;3.00;;;;;;;6.44;73.14;99617.22;4899494;29;20033;-83
2022/01/30 06:01:10;;;;;;;18.92;3.65;;;;;;;6.49;72.68;99635.31;4874883;29;20059;-83
2022/01/30 06:03:36;;;;;;;15.40;3.75;;;;;;;6.57;73.02;99652.00;4860015;29;20059;-82
2022/01/30 06:06:01;;;;;;;12.30;3.03;;;;;;;6.55;72.97;99661.22;4889444;29;20028;-82
2022/01/30 06:08:40;;;;;;;19.17;3.30;;;;;;;6.11;73.60;99601.09;4892045;29;20029;-82
2022/01/30 06:11:07;;;;;;;16.48;3.50;;;;;;;6.50;73.99;99677.06;4892029;29;20052;-82
2022/01/30 06:13:33;;;;;;;12.52;2.85;;;;;;;6.48;73.60;99671.91;4890467;29;20037;-83
2022/01/30 06:15:59;;;;;;;14.85;2.92;;;;;;;6.53;73.13;99682.84;4873620;29;20372;-82
2022/01/30 06:18:25;;;;;;;21.50;3.10;;;;;;;6.49;73.28;99697.63;4874709;29;20033;-82
2022/01/30 06:20:51;;;;;;;11.05;1.85;;;;;;;6.53;71.93;99722.91;4888659;29;20452;-84
2022/01/30 06:23:16;;;;;;;15.63;2.90;;;;;;;6.56;73.21;99740.41;4879416;29;20036;-83
2022/01/30 06:25:42;;;;;;;15.93;2.85;;;;;;;6.57;72.99;99750.88;4888201;29;20048;-82
2022/01/30 06:28:07;;;;;;;19.35;3.55;;;;;;;6.58;72.83;99741.84;4887729;29;20033;-83
2022/01/30 06:30:32;;;;;;;19.85;3.75;;;;;;;6.40;74.16;99760.28;4889586;29;20041;-83
2022/01/30 06:32:59;;;;;;;17.52;3.58;;;;;;;6.48;74.81;99761.94;4892837;29;20037;-84
2022/01/30 06:35:24;;;;;;;15.73;3.42;;;;;;;6.27;75.03;99754.84;4891813;29;20048;-84
2022/01/30 06:37:49;;;;;;;26.85;4.35;;;;;;;6.47;75.21;99800.38;4889911;29;20033;-83
2022/01/30 06:40:15;;;;;;;22.88;5.15;;;;;;;6.49;74.49;99796.50;4874951;29;20033;-84
2022/01/30 06:42:40;;;;;;;19.80;3.50;;;;;;;6.43;74.12;99807.97;4891707;29;20044;-82
2022/01/30 06:45:07;;;;;;;11.90;2.67;;;;;;;6.42;73.55;99792.94;4877680;29;20087;-86
2022/01/30 06:47:41;;;;;;;18.10;3.58;;;;;;;6.46;73.68;99836.16;4874988;29;20112;-88
2022/01/30 06:52:42;;;;;;;10.52;2.05;;;;;;;5.37;73.01;99687.06;4969666;23;20079;-85
2022/01/30 06:55:08;;;;;;;13.18;2.95;;;;;;;5.82;73.14;99805.03;4916771;29;20064;-83
2022/01/30 06:57:34;;;;;;;17.00;2.83;;;;;;;6.15;73.01;99879.28;4919106;29;20064;-86
2022/01/30 07:00:00;;;;;;;14.88;2.78;;;;;;;5.90;73.28;99820.94;4922215;29;20028;-86
2022/01/30 07:02:26;;;;;;;15.40;3.30;;;;;;;5.45;74.33;99748.25;4924592;29;20048;-87
2022/01/30 07:04:51;;;;;;;11.07;2.40;;;;;;;6.08;74.71;99844.50;4924019;29;20044;-87
2022/01/30 07:07:18;;;;;;;16.90;3.08;;;;;;;5.38;74.68;99761.53;4937781;29;20012;-84
2022/01/30 07:09:43;;;;;;;15.77;3.63;;;;;;;5.51;76.03;99806.19;4919296;29;20028;-86
2022/01/30 07:12:09;;;;;;;18.35;3.58;;;;;;;5.85;76.20;99904.25;4920096;29;20067;-83
2022/01/30 07:14:35;;;;;;;17.23;3.33;;;;;;;5.69;75.91;99839.63;4918319;29;20028;-84
2022/01/30 07:17:00;;;;;;;19.30;2.95;;;;;;;5.62;75.76;99848.38;4917562;29;20080;-84
2022/01/30 07:19:26;;;;;;;15.52;3.50;;;;;;;5.45;74.63;99830.16;4934671;29;20032;-84
2022/01/30 07:21:52;;;;;;;18.90;3.13;;;;;;;6.41;74.69;99975.69;4933333;29;20052;-85
2022/01/30 07:24:18;;;;;;;14.52;3.30;;;;;;;5.36;74.32;99816.09;4933462;29;20020;-84
2022/01/30 07:26:44;;;;;;;11.90;2.63;;;;;;;5.75;74.23;99897.56;4917441;29;20031;-82
2022/01/30 07:29:10;;;;;;;15.95;2.83;;;;;;;5.39;75.14;99837.06;4919523;29;20020;-84
2022/01/30 07:31:36;;;;;;;9.95;2.55;;;;;;;5.70;75.06;99921.34;4920656;29;20012;-84
2022/01/30 07:34:02;;;;;;;11.82;2.10;;;;;;;5.80;73.67;99922.69;4937807;29;20031;-84
2022/01/30 07:36:30;;;;;;;11.07;2.30;;;;;;;5.32;72.83;99825.50;4937988;29;20024;-84
2022/01/30 07:38:56;;;;;;;13.88;2.92;;;;;;;5.53;73.63;99878.88;4938259;29;20024;-84
2022/01/30 07:41:22;;;;;;;11.20;2.83;;;;;;;5.34;74.60;99856.31;4939421;29;20064;-82
2022/01/30 07:43:48;;;;;;;13.63;3.17;;;;;;;5.33;74.41;99892.00;4922830;29;20060;-84
2022/01/30 07:46:15;;;;;;;16.73;3.33;;;;;;;5.44;74.69;99928.03;4939002;29;20043;-86
2022/01/30 07:48:41;;;;;;;18.08;4.18;;;;;;;5.34;74.56;99908.84;4921745;29;20035;-86
2022/01/30 07:51:09;;;;;;;14.80;3.58;;;;;;;5.81;73.22;99985.75;4922379;29;20059;-87
2022/01/30 07:53:35;;;;;;;13.50;3.38;;;;;;;5.80;73.60;99978.75;4940071;29;20036;-85
2022/01/30 07:56:01;;;;;;;14.95;3.20;;;;;;;5.36;73.15;99939.66;4924258;29;20040;-86
2022/01/30 07:58:26;;;;;;;11.82;3.05;;;;;;;5.37;72.26;99994.66;4940513;29;20066;-84
2022/01/30 08:00:52;;;;;;;16.40;2.90;;;;;;;6.48;71.69;100079.97;4935922;29;20097;-87
2022/01/30 08:03:18;;;;;;;17.08;3.38;;;;;;;5.52;73.23;99986.63;4935145;29;20020;-86
2022/01/30 08:05:43;;;;;;;15.65;3.63;;;;;;;5.43;72.20;99990.44;4924171;29;20028;-86
2022/01/30 08:08:09;;;;;;;11.05;2.55;;;;;;;6.44;71.87;100068.84;4920163;29;20074;-87
2022/01/30 08:10:35;;;;;;;16.92;3.42;;;;;;;6.46;71.81;100114.91;4924611;29;20027;-87
2022/01/30 08:13:01;;;;;;;9.07;2.05;;;;;;;5.77;70.54;100021.84;4929526;29;20020;-85
2022/01/30 08:15:29;;;;;;;12.02;2.50;;;;;;;6.48;71.34;100176.19;4922077;29;20004;-87
2022/01/30 08:17:54;;;;;;;13.45;3.25;;;;;;;5.64;71.22;100014.50;4916752;29;20039;-83
2022/01/30 08:20:21;;;;;;;16.10;3.10;;;;;;;5.99;73.20;100131.38;4916611;29;20040;-85
2022/01/30 08:22:52;;;;;;;16.65;3.78;;;;;;;5.98;72.13;100127.91;4916025;29;20032;-83
2022/01/30 08:25:20;;;;;;;14.98;2.70;;;;;;;5.34;71.56;100037.69;4916777;29;20028;-84
2022/01/30 08:27:46;;;;;;;15.70;3.05;;;;;;;5.52;72.35;100090.69;4934086;29;20023;-84
2022/01/30 08:30:12;;;;;;;16.55;3.83;;;;;;;6.02;73.56;100195.13;4921202;29;20120;-84
2022/01/30 08:32:39;;;;;;;14.93;3.78;;;;;;;5.95;73.09;100172.84;4938268;29;20036;-85
2022/01/30 08:35:07;;;;;;;10.85;2.63;;;;;;;5.53;71.75;100079.03;4937284;29;20032;-85
2022/01/30 08:37:33;;;;;;;13.30;2.50;;;;;;;6.13;71.40;100212.53;4937194;29;20024;-85
2022/01/30 08:39:58;;;;;;;12.82;2.13;;;;;;;6.46;71.10;100293.97;4917349;29;20050;-84
2022/01/30 08:42:24;;;;;;;13.50;2.20;;;;;;;5.74;70.39;100181.56;4934292;29;20084;-83
2022/01/30 08:44:50;;;;;;;11.90;3.45;;;;;;;6.53;71.80;100273.50;4914085;29;20021;-84
2022/01/30 08:47:15;;;;;;;15.82;2.90;;;;;;;5.47;71.95;100127.78;4932656;29;20028;-85
2022/01/30 08:49:41;;;;;;;13.52;3.30;;;;;;;5.48;72.51;100113.41;4917738;29;20068;-84
2022/01/30 08:52:07;;;;;;;9.38;2.50;;;;;;;5.77;71.03;100175.84;4932822;29;20490;-85
2022/01/30 08:54:32;;;;;;;10.23;2.53;;;;;;;6.52;70.37;100311.94;4918254;29;20123;-84
2022/01/30 08:56:58;;;;;;;10.27;3.13;;;;;;;6.41;69.93;100280.31;4918685;29;20032;-82
2022/01/30 08:59:23;;;;;;;9.93;2.97;;;;;;;5.80;70.62;100234.22;4935273;29;20035;-84
2022/01/30 09:01:49;;;;;;;10.18;2.08;;;;;;;5.66;68.64;100190.44;4916846;29;20695;-84
2022/01/30 09:04:14;;;;;;;11.10;2.17;;;;;;;6.34;68.72;100306.97;4934563;29;20043;-85
2022/01/30 09:06:40;;;;;;;15.85;2.47;;;;;;;6.53;69.28;100361.72;4917693;29;20023;-84
2022/01/30 09:09:06;;;;;;;11.38;1.77;;;;;;;6.56;69.55;100360.53;4917726;29;20038;-85
2022/01/30 09:11:34;;;;;;;8.98;1.80;;;;;;;5.53;70.54;100211.59;4933568;29;20031;-83
2022/01/30 09:13:59;;;;;;;8.60;2.30;;;;;;;5.39;69.37;100198.03;4932315;29;20024;-84
2022/01/30 09:16:25;;;;;;;13.10;2.40;;;;;;;5.60;69.88;100224.06;4917129;29;20521;-85
2022/01/30 09:18:51;;;;;;;12.70;2.55;;;;;;;5.78;70.95;100265.59;4920001;29;20028;-84
2022/01/30 09:21:16;;;;;;;8.93;2.05;;;;;;;5.73;71.79;100294.66;4920080;29;20044;-85
2022/01/30 09:23:42;;;;;;;9.45;1.90;;;;;;;5.71;70.62;100273.50;4918884;29;20028;-83
2022/01/30 09:26:07;;;;;;;7.80;1.83;;;;;;;5.72;67.92;100285.81;4934821;29;20048;-85
2022/01/30 09:28:33;;;;;;;8.30;1.35;;;;;;;5.76;66.58;100280.94;4934574;29;20028;-83
2022/01/30 09:30:59;;;;;;;11.80;1.80;;;;;;;6.59;66.98;100411.78;4916579;29;20039;-84
2022/01/30 09:33:24;;;;;;;12.70;1.80;;;;;;;5.51;66.63;100249.16;4919437;29;20032;-84
2022/01/30 09:35:51;;;;;;;11.63;2.15;;;;;;;5.52;66.86;100264.13;4917770;29;20032;-83
2022/01/30 09:38:16;;;;;;;6.95;1.33;;;;;;;5.78;63.96;100237.06;4917865;29;20159;-79
2022/01/30 09:40:42;;;;;;;7.93;1.67;;;;;;;6.42;64.63;100423.63;4919008;29;20047;-82
2022/01/30 09:43:09;;;;;;;5.68;1.65;;;;;;;6.13;64.58;100407.53;4915932;29;20095;-84
2022/01/30 09:45:35;;;;;;;9.43;2.00;;;;;;;6.00;65.04;100358.22;4927128;29;20103;-81
2022/01/30 09:48:00;;;;;;;8.75;2.72;;;;;;;6.37;67.22;100455.41;4908213;29;20016;-83
2022/01/30 09:50:27;;;;;;;18.85;3.33;;;;;;;6.01;67.74;100399.09;4893787;29;20495;-81
2022/01/30 09:52:53;;;;;;;5.80;1.50;;;;;;;6.43;65.42;100480.59;4910244;29;20155;-81
2022/01/30 09:55:19;;;;;;;7.20;1.63;;;;;;;6.09;64.26;100436.44;4904971;29;20423;-81
2022/01/30 09:57:44;;;;;;;8.63;1.55;;;;;;;6.56;65.73;100492.34;4920056;29;20091;-81
2022/01/30 10:00:11;;;;;;;6.55;1.20;;;;;;;6.57;65.11;100520.72;4921084;29;20374;-82
2022/01/30 10:02:40;;;;;;;8.65;1.50;;;;;;;6.52;61.08;100519.59;4907300;29;20028;-81
2022/01/30 10:05:06;;;;;;;5.60;1.25;;;;;;;6.55;60.72;100570.84;4924609;29;20024;-81
2022/01/30 10:07:51;;;;;;;8.65;1.92;;;;;;;6.63;61.57;100577.16;4928509;29;20016;-82
2022/01/30 10:10:21;;;;;;;4.95;0.75;;;;;;;6.62;60.88;100556.78;4896345;29;20071;-83
2022/01/30 10:13:08;;;;;;;7.88;1.75;;;;;;;6.59;61.64;100566.00;4894069;29;20195;-83
2022/01/30 10:15:52;;;;;;;9.77;2.30;;;;;;;6.40;63.31;100543.25;4932015;29;20455;-82
2022/01/30 10:18:20;;;;;;;5.78;1.50;;;;;;;6.46;63.98;100574.63;4930616;29;20099;-83
2022/01/30 10:20:45;;;;;;;8.57;2.42;;;;;;;6.42;64.52;100559.09;4928960;29;20060;-83
2022/01/30 10:23:12;;;;;;;4.93;1.27;;;;;;;6.47;62.34;100586.97;4916054;29;20036;-83
2022/01/30 10:25:51;;;;;;;5.57;0.95;;;;;;;6.50;63.85;100594.63;4916327;29;20020;-85
2022/01/30 10:28:27;;;;;;;6.18;0.73;;;;;;;6.52;59.69;100600.63;4900447;29;20039;-85
2022/01/30 10:30:55;;;;;;;8.65;1.40;;;;;;;6.15;61.45;100555.09;4917341;29;20452;-84
2022/01/30 10:35:57;;;;;;;8.57;1.60;;;;;;;5.94;62.37;100561.91;4893433;29;20064;-82
2022/01/30 10:38:32;;;;;;;6.30;1.17;;;;;;;6.44;62.69;100638.09;4878320;29;20025;-83
2022/01/30 10:41:10;;;;;;;13.63;2.05;;;;;;;6.39;62.96;100661.88;4895400;29;20032;-84
2022/01/30 10:44:01;;;;;;;6.82;1.60;;;;;;;5.77;63.56;100587.81;4883960;29;20085;-82
2022/01/30 10:46:30;;;;;;;11.70;1.88;;;;;;;5.30;63.40;100502.44;4875033;29;20074;-80
2022/01/30 10:49:00;;;;;;;6.70;1.40;;;;;;;5.64;62.98;100567.00;4867281;29;20021;-83
2022/01/30 10:51:31;;;;;;;8.30;1.40;;;;;;;5.42;61.51;100525.03;4870514;29;20022;-84
2022/01/30 10:53:59;;;;;;;14.45;1.83;;;;;;;5.44;64.82;100532.91;4893943;29;20025;-83
2022/01/30 10:56:29;;;;;;;12.35;2.67;;;;;;;5.88;65.11;100605.28;4892624;29;20040;-83
2022/01/30 10:59:12;;;;;;;8.85;2.05;;;;;;;5.31;66.52;100536.94;4892278;29;20029;-83
2022/01/30 11:01:43;;;;;;;15.13;3.33;;;;;;;5.48;68.76;100579.56;4878294;29;20033;-83
2022/01/30 11:04:28;;;;;;;18.05;2.88;;;;;;;6.27;68.39;100689.97;4874040;29;20041;-83
2022/01/30 11:06:55;;;;;;;23.70;2.30;;;;;;;6.24;69.16;100707.19;4878323;29;20088;-84
2022/01/30 11:09:26;;;;;;;10.88;2.15;;;;;;;5.52;69.33;100608.41;4878655;29;20033;-84
2022/01/30 11:12:00;;;;;;;11.43;2.88;;;;;;;5.65;69.44;100629.22;4878914;29;20029;-83
2022/01/30 11:14:51;;;;;;;;;;;;;;;6.17;69.78;100724.09;4879273;29;20025;-84
2022/01/30 11:17:18;;;;;;;9.35;1.50;;;;;;;5.56;68.99;100609.75;4878781;29;20426;-83
2022/01/30 11:19:47;;;;;;;11.48;2.15;;;;;;;5.07;66.69;100559.16;4877630;29;20032;-83
2022/01/30 11:22:21;;;;;;;11.23;2.00;;;;;;;5.06;66.40;100562.81;4890109;29;20040;-83
2022/01/30 11:24:53;;;;;;;12.70;2.30;;;;;;;6.11;67.63;100739.78;4876234;29;20021;-86
2022/01/30 11:27:21;;;;;;;13.52;2.72;;;;;;;5.06;64.49;100613.47;4873563;29;20746;-82
2022/01/30 11:29:47;;;;;;;12.63;2.40;;;;;;;5.15;65.85;100591.16;4874129;29;20036;-82
2022/01/30 11:32:14;;;;;;;10.00;2.00;;;;;;;5.60;64.69;100667.13;4878303;29;20104;-83
2022/01/30 11:34:41;;;;;;;8.32;1.58;;;;;;;6.04;62.84;100744.16;4878335;29;20056;-84
2022/01/30 11:37:08;;;;;;;7.75;1.50;;;;;;;5.37;62.72;100618.13;4877247;29;20065;-84
2022/01/30 11:39:37;;;;;;;5.38;1.33;;;;;;;4.98;60.92;100573.50;4877948;29;20448;-82
2022/01/30 11:42:13;;;;;;;5.50;1.30;;;;;;;4.89;62.33;100551.34;4878519;29;20028;-84
2022/01/30 11:44:43;;;;;;;7.70;1.73;;;;;;;5.53;61.87;100667.94;4891614;29;20549;-84
2022/01/30 11:47:09;;;;;;;6.70;1.83;;;;;;;6.02;61.40;100730.13;4881635;29;20101;-85
2022/01/30 11:49:43;;;;;;;5.10;1.23;;;;;;;5.41;60.25;100689.66;4900572;29;20017;-84
2022/01/30 11:52:10;;;;;;;7.32;1.80;;;;;;;4.77;62.26;100552.69;4878839;29;20132;-83
2022/01/30 11:54:47;;;;;;;10.63;2.35;;;;;;;5.28;63.82;100667.16;4892572;29;20097;-83
2022/01/30 11:57:18;;;;;;;6.40;1.67;;;;;;;5.98;62.82;100744.81;4873859;29;20035;-81
2022/01/30 11:59:45;;;;;;;8.50;2.90;;;;;;;5.85;61.91;100776.53;4873696;29;20044;-82
2022/01/30 12:02:25;;;;;;;9.55;1.60;;;;;;;5.90;63.17;100768.84;4873431;29;20037;-83
2022/01/30 12:05:08;;;;;;;10.13;1.83;;;;;;;5.92;64.37;100795.38;4890371;29;20379;-83
2022/01/30 12:07:37;;;;;;;7.57;1.63;;;;;;;5.92;61.85;100787.38;4889655;29;20120;-82
2022/01/30 12:10:29;;;;;;;8.93;2.28;;;;;;;5.96;62.58;100757.53;4890791;29;20037;-83
2022/01/30 12:13:03;;;;;;;5.90;1.50;;;;;;;5.91;60.21;100807.91;4874880;29;20029;-82
2022/01/30 12:15:45;;;;;;;5.35;1.60;;;;;;;5.94;60.92;100780.06;4890307;29;20033;-81
2022/01/30 12:18:44;;;;;;;3.22;1.17;;;;;;;5.85;62.48;100787.22;4874433;29;20059;-84
2022/01/30 12:21:13;;;;;;;8.98;1.90;;;;;;;5.92;62.05;100792.72;4873837;29;20025;-82
2022/01/30 12:23:40;;;;;;;6.10;1.58;;;;;;;5.63;60.35;100768.22;4875434;29;20062;-84
2022/01/30 12:26:15;;;;;;;6.78;1.63;;;;;;;5.89;59.37;100857.97;4877792;29;20077;-84
2022/01/30 12:28:52;;;;;;;6.10;1.80;;;;;;;5.88;60.25;100803.72;4901942;29;20085;-84
2022/01/30 12:31:32;;;;;;;6.88;1.35;;;;;;;5.92;58.93;100828.25;4877481;29;20029;-83
2022/01/30 12:34:08;;;;;;;7.93;2.03;;;;;;;5.87;59.41;100835.97;4866306;29;20053;-81
2022/01/30 12:36:36;;;;;;;10.05;1.90;;;;;;;5.88;60.68;100824.25;4864937;29;20037;-80
2022/01/30 12:39:04;;;;;;;9.48;1.05;;;;;;;5.74;59.95;100816.94;4861842;29;20032;-80